sensor_id;sensor_type;location;lat;lon;timestamp;pressure;altitude;pressure_sealevel;temperature;humidity
1401;BME280;46518;48.842;8.926;2023-04-28T00:00:32;96920.13;;;12.52;64.77
1401;BME280;46518;48.842;8.926;2023-04-28T00:03:00;96915.69;;;12.53;64.01
1401;BME280;46518;48.842;8.926;2023-04-28T00:05:28;96907.47;;;12.44;66.33
1401;BME280;46518;48.842;8.926;2023-04-28T00:07:56;96909.56;;;12.37;66.08
1401;BME280;46518;48.842;8.926;2023-04-28T00:10:24;96919.31;;;12.32;65.81
1401;BME280;46518;48.842;8.926;2023-04-28T00:12:52;96908.53;;;12.43;66.56
1401;BME280;46518;48.842;8.926;2023-04-28T00:15:22;96918.56;;;12.41;67.14
1401;BME280;46518;48.842;8.926;2023-04-28T00:17:50;96916.94;;;12.30;67.39
1401;BME280;46518;48.842;8.926;2023-04-28T00:20:19;96910.34;;;12.33;67.28
1401;BME280;46518;48.842;8.926;2023-04-28T00:22:47;96894.78;;;12.21;67.46
1401;BME280;46518;48.842;8.926;2023-04-28T00:25:16;96915.88;;;12.16;67.61
1401;BME280;46518;48.842;8.926;2023-04-28T00:27:44;96902.66;;;12.16;67.05
1401;BME280;46518;48.842;8.926;2023-04-28T00:30:12;96901.09;;;12.25;66.87
1401;BME280;46518;48.842;8.926;2023-04-28T00:32:42;96887.38;;;12.28;66.71
1401;BME280;46518;48.842;8.926;2023-04-28T00:35:10;96906.66;;;12.23;67.73
1401;BME280;46518;48.842;8.926;2023-04-28T00:37:38;96900.53;;;12.13;66.50
1401;BME280;46518;48.842;8.926;2023-04-28T00:40:07;96878.09;;;12.00;66.96
1401;BME280;46518;48.842;8.926;2023-04-28T00:42:36;96885.53;;;12.23;65.90
1401;BME280;46518;48.842;8.926;2023-04-28T00:45:04;96883.47;;;12.51;66.23
1401;BME280;46518;48.842;8.926;2023-04-28T00:47:33;96892.19;;;12.62;65.86
1401;BME280;46518;48.842;8.926;2023-04-28T00:50:05;96881.63;;;12.67;65.83
1401;BME280;46518;48.842;8.926;2023-04-28T00:52:33;96878.69;;;12.43;65.06
1401;BME280;46518;48.842;8.926;2023-04-28T00:55:03;96887.41;;;12.43;65.31
1401;BME280;46518;48.842;8.926;2023-04-28T00:57:31;96890.00;;;12.28;66.62
1401;BME280;46518;48.842;8.926;2023-04-28T01:00:00;96868.41;;;12.26;67.53
1401;BME280;46518;48.842;8.926;2023-04-28T01:02:30;96881.84;;;12.29;68.49
1401;BME280;46518;48.842;8.926;2023-04-28T01:04:59;96885.28;;;12.30;67.73
1401;BME280;46518;48.842;8.926;2023-04-28T01:07:29;96890.53;;;12.20;67.77
1401;BME280;46518;48.842;8.926;2023-04-28T01:09:57;96874.44;;;12.21;67.45
1401;BME280;46518;48.842;8.926;2023-04-28T01:12:30;96867.88;;;12.29;66.86
1401;BME280;46518;48.842;8.926;2023-04-28T01:14:58;96866.03;;;12.35;66.56
1401;BME280;46518;48.842;8.926;2023-04-28T01:17:27;96868.13;;;12.43;66.61
1401;BME280;46518;48.842;8.926;2023-04-28T01:19:55;96856.25;;;12.35;67.68
1401;BME280;46518;48.842;8.926;2023-04-28T01:22:24;96864.16;;;12.45;68.06
1401;BME280;46518;48.842;8.926;2023-04-28T01:24:53;96855.22;;;12.41;67.48
1401;BME280;46518;48.842;8.926;2023-04-28T01:27:22;96842.81;;;12.47;67.47
1401;BME280;46518;48.842;8.926;2023-04-28T01:29:50;96840.69;;;12.49;67.47
1401;BME280;46518;48.842;8.926;2023-04-28T01:32:18;96846.75;;;12.60;67.98
1401;BME280;46518;48.842;8.926;2023-04-28T01:34:46;96851.00;;;12.66;67.50
1401;BME280;46518;48.842;8.926;2023-04-28T01:37:15;96848.34;;;12.66;68.78
1401;BME280;46518;48.842;8.926;2023-04-28T01:39:43;96842.81;;;12.57;68.02
1401;BME280;46518;48.842;8.926;2023-04-28T01:42:12;96838.84;;;12.65;66.59
1401;BME280;46518;48.842;8.926;2023-04-28T01:44:40;96833.84;;;12.53;66.29
1401;BME280;46518;48.842;8.926;2023-04-28T01:47:09;96838.31;;;12.52;66.19
1401;BME280;46518;48.842;8.926;2023-04-28T01:49:38;96833.81;;;12.43;66.88
1401;BME280;46518;48.842;8.926;2023-04-28T01:52:06;96825.66;;;12.44;66.64
1401;BME280;46518;48.842;8.926;2023-04-28T01:57:24;96820.38;;;12.29;67.77
1401;BME280;46518;48.842;8.926;2023-04-28T01:59:56;96824.88;;;12.39;67.63
1401;BME280;46518;48.842;8.926;2023-04-28T02:02:25;96817.19;;;12.37;67.63
1401;BME280;46518;48.842;8.926;2023-04-28T02:04:53;96817.72;;;12.39;67.97
1401;BME280;46518;48.842;8.926;2023-04-28T02:07:23;96822.47;;;12.32;67.84
1401;BME280;46518;48.842;8.926;2023-04-28T02:09:52;96818.78;;;12.48;68.70
1401;BME280;46518;48.842;8.926;2023-04-28T02:12:20;96823.00;;;12.60;67.44
1401;BME280;46518;48.842;8.926;2023-04-28T02:14:51;96821.44;;;12.64;67.45
1401;BME280;46518;48.842;8.926;2023-04-28T02:17:19;96819.03;;;12.57;68.19
1401;BME280;46518;48.842;8.926;2023-04-28T02:19:47;96820.88;;;12.72;67.78
1401;BME280;46518;48.842;8.926;2023-04-28T02:22:15;96815.88;;;12.60;67.97
1401;BME280;46518;48.842;8.926;2023-04-28T02:24:43;96817.97;;;12.73;67.18
1401;BME280;46518;48.842;8.926;2023-04-28T02:27:11;96809.25;;;12.63;67.61
1401;BME280;46518;48.842;8.926;2023-04-28T02:29:39;96797.66;;;12.69;68.20
1401;BME280;46518;48.842;8.926;2023-04-28T02:32:09;96816.41;;;12.67;67.25
1401;BME280;46518;48.842;8.926;2023-04-28T02:34:37;96811.13;;;12.57;68.04
1401;BME280;46518;48.842;8.926;2023-04-28T02:37:06;96815.09;;;12.44;68.31
1401;BME280;46518;48.842;8.926;2023-04-28T02:39:34;96821.16;;;12.35;69.53
1401;BME280;46518;48.842;8.926;2023-04-28T02:42:03;96829.31;;;12.18;70.01
1401;BME280;46518;48.842;8.926;2023-04-28T02:44:31;96828.28;;;12.14;69.64
1401;BME280;46518;48.842;8.926;2023-04-28T02:46:59;96842.25;;;12.09;69.97
1401;BME280;46518;48.842;8.926;2023-04-28T02:49:29;96830.34;;;11.91;70.01
1401;BME280;46518;48.842;8.926;2023-04-28T02:51:57;96846.69;;;11.93;71.53
1401;BME280;46518;48.842;8.926;2023-04-28T02:54:26;96828.25;;;11.98;72.60
1401;BME280;46518;48.842;8.926;2023-04-28T02:56:56;96841.16;;;12.00;72.81
1401;BME280;46518;48.842;8.926;2023-04-28T02:59:25;96824.78;;;11.87;73.44
1401;BME280;46518;48.842;8.926;2023-04-28T03:01:53;96828.75;;;11.95;72.76
1401;BME280;46518;48.842;8.926;2023-04-28T03:04:21;96823.22;;;12.02;71.69
1401;BME280;46518;48.842;8.926;2023-04-28T03:06:51;96819.25;;;11.94;71.94
1401;BME280;46518;48.842;8.926;2023-04-28T03:09:19;96812.97;;;12.11;71.36
1401;BME280;46518;48.842;8.926;2023-04-28T03:11:47;96824.31;;;12.26;70.18
1401;BME280;46518;48.842;8.926;2023-04-28T03:14:15;96826.72;;;12.54;69.75
1401;BME280;46518;48.842;8.926;2023-04-28T03:16:44;96818.25;;;12.57;71.65
1401;BME280;46518;48.842;8.926;2023-04-28T03:19:13;96820.38;;;12.49;71.30
1401;BME280;46518;48.842;8.926;2023-04-28T03:21:41;96803.22;;;12.32;72.64
1401;BME280;46518;48.842;8.926;2023-04-28T03:24:13;96806.09;;;12.20;72.92
1401;BME280;46518;48.842;8.926;2023-04-28T03:26:42;96791.88;;;12.21;72.32
1401;BME280;46518;48.842;8.926;2023-04-28T03:29:10;96798.47;;;12.18;72.49
1401;BME280;46518;48.842;8.926;2023-04-28T03:31:38;96797.94;;;12.11;72.88
1401;BME280;46518;48.842;8.926;2023-04-28T03:34:07;96800.28;;;12.28;72.89
1401;BME280;46518;48.842;8.926;2023-04-28T03:36:35;96798.47;;;12.18;71.19
1401;BME280;46518;48.842;8.926;2023-04-28T03:39:13;96778.69;;;12.21;71.34
1401;BME280;46518;48.842;8.926;2023-04-28T03:41:41;96791.06;;;12.20;72.08
1401;BME280;46518;48.842;8.926;2023-04-28T03:44:35;96787.13;;;12.38;71.35
1401;BME280;46518;48.842;8.926;2023-04-28T03:47:05;96782.38;;;12.20;71.15
1401;BME280;46518;48.842;8.926;2023-04-28T03:49:34;96777.38;;;12.13;71.02
1401;BME280;46518;48.842;8.926;2023-04-28T03:52:02;96778.16;;;12.19;71.45
1401;BME280;46518;48.842;8.926;2023-04-28T03:54:32;96771.56;;;12.37;71.89
1401;BME280;46518;48.842;8.926;2023-04-28T03:57:01;96772.31;;;12.52;71.15
1401;BME280;46518;48.842;8.926;2023-04-28T03:59:32;96769.69;;;12.47;70.64
1401;BME280;46518;48.842;8.926;2023-04-28T04:02:00;96767.84;;;12.33;72.33
1401;BME280;46518;48.842;8.926;2023-04-28T04:04:28;96775.50;;;12.39;71.51
1401;BME280;46518;48.842;8.926;2023-04-28T04:06:57;96773.41;;;12.41;72.17
1401;BME280;46518;48.842;8.926;2023-04-28T04:09:25;96772.06;;;12.64;71.53
1401;BME280;46518;48.842;8.926;2023-04-28T04:11:55;96766.50;;;12.76;71.16
1401;BME280;46518;48.842;8.926;2023-04-28T04:14:24;96769.38;;;12.74;71.15
1401;BME280;46518;48.842;8.926;2023-04-28T04:16:53;96768.63;;;12.64;71.69
1401;BME280;46518;48.842;8.926;2023-04-28T04:19:21;96776.00;;;12.62;72.27
1401;BME280;46518;48.842;8.926;2023-04-28T04:21:53;96774.44;;;12.61;72.55
1401;BME280;46518;48.842;8.926;2023-04-28T04:24:21;96771.19;;;12.94;71.64
1401;BME280;46518;48.842;8.926;2023-04-28T04:26:50;96761.69;;;12.99;71.25
1401;BME280;46518;48.842;8.926;2023-04-28T04:29:28;96767.31;;;12.66;72.87
1401;BME280;46518;48.842;8.926;2023-04-28T04:31:59;96765.72;;;12.60;73.49
1401;BME280;46518;48.842;8.926;2023-04-28T04:34:27;96770.41;;;12.89;72.82
1401;BME280;46518;48.842;8.926;2023-04-28T04:36:56;96761.22;;;12.76;73.17
1401;BME280;46518;48.842;8.926;2023-04-28T04:39:24;96769.88;;;12.92;72.57
1401;BME280;46518;48.842;8.926;2023-04-28T04:41:52;96766.19;;;12.83;72.76
1401;BME280;46518;48.842;8.926;2023-04-28T04:44:45;96743.22;;;12.88;73.56
1401;BME280;46518;48.842;8.926;2023-04-28T04:47:25;96750.50;;;13.17;73.34
1401;BME280;46518;48.842;8.926;2023-04-28T04:49:54;96752.78;;;12.64;76.24
1401;BME280;46518;48.842;8.926;2023-04-28T04:52:23;96758.31;;;12.67;77.25
1401;BME280;46518;48.842;8.926;2023-04-28T04:54:51;96768.34;;;12.60;78.18
1401;BME280;46518;48.842;8.926;2023-04-28T04:57:19;96766.78;;;12.54;78.20
1401;BME280;46518;48.842;8.926;2023-04-28T05:00:21;96773.41;;;12.31;80.88
1401;BME280;46518;48.842;8.926;2023-04-28T05:02:51;96765.47;;;12.41;82.98
1401;BME280;46518;48.842;8.926;2023-04-28T05:05:19;96772.06;;;12.49;82.52
1401;BME280;46518;48.842;8.926;2023-04-28T05:08:09;96771.78;;;12.76;82.06
1401;BME280;46518;48.842;8.926;2023-04-28T05:10:37;96759.84;;;12.89;82.19
1401;BME280;46518;48.842;8.926;2023-04-28T05:13:05;96761.19;;;12.86;80.98
1401;BME280;46518;48.842;8.926;2023-04-28T05:15:37;96767.59;;;12.34;82.90
1401;BME280;46518;48.842;8.926;2023-04-28T05:18:20;96763.63;;;12.47;82.56
1401;BME280;46518;48.842;8.926;2023-04-28T05:20:49;96771.53;;;12.52;82.93
1401;BME280;46518;48.842;8.926;2023-04-28T05:23:18;96766.00;;;12.54;82.04
1401;BME280;46518;48.842;8.926;2023-04-28T05:25:46;96772.31;;;12.52;82.81
1401;BME280;46518;48.842;8.926;2023-04-28T05:28:15;96765.47;;;12.51;83.24
1401;BME280;46518;48.842;8.926;2023-04-28T05:30:48;96761.25;;;12.40;83.58
1401;BME280;46518;48.842;8.926;2023-04-28T05:33:17;96767.06;;;12.17;84.88
1401;BME280;46518;48.842;8.926;2023-04-28T05:35:46;96760.22;;;12.36;85.01
1401;BME280;46518;48.842;8.926;2023-04-28T05:38:14;96755.97;;;12.25;85.40
1401;BME280;46518;48.842;8.926;2023-04-28T05:40:44;96756.50;;;12.37;86.76
1401;BME280;46518;48.842;8.926;2023-04-28T05:43:12;96764.94;;;12.39;85.22
1401;BME280;46518;48.842;8.926;2023-04-28T05:45:40;96747.03;;;12.31;84.80
1401;BME280;46518;48.842;8.926;2023-04-28T05:48:10;96746.50;;;12.29;85.97
1401;BME280;46518;48.842;8.926;2023-04-28T05:50:39;96751.78;;;12.08;87.12
1401;BME280;46518;48.842;8.926;2023-04-28T05:53:09;96750.97;;;12.13;88.44
1401;BME280;46518;48.842;8.926;2023-04-28T05:55:37;96742.53;;;12.16;88.38
1401;BME280;46518;48.842;8.926;2023-04-28T05:58:05;96748.06;;;12.09;88.64
1401;BME280;46518;48.842;8.926;2023-04-28T06:00:33;96749.13;;;12.08;89.83
1401;BME280;46518;48.842;8.926;2023-04-28T06:03:02;96756.50;;;12.01;89.41
1401;BME280;46518;48.842;8.926;2023-04-28T06:05:33;96750.44;;;12.06;89.36
1401;BME280;46518;48.842;8.926;2023-04-28T06:08:02;96743.31;;;12.12;89.76
1401;BME280;46518;48.842;8.926;2023-04-28T06:10:30;96746.47;;;12.39;90.67
1401;BME280;46518;48.842;8.926;2023-04-28T06:12:58;96751.22;;;12.42;89.87
1401;BME280;46518;48.842;8.926;2023-04-28T06:15:27;96743.84;;;12.39;89.20
1401;BME280;46518;48.842;8.926;2023-04-28T06:17:55;96750.16;;;12.64;88.86
1401;BME280;46518;48.842;8.926;2023-04-28T06:20:23;96741.44;;;12.48;89.75
1401;BME280;46518;48.842;8.926;2023-04-28T06:22:54;96747.72;;;12.78;90.62
1401;BME280;46518;48.842;8.926;2023-04-28T06:25:22;96742.72;;;12.76;88.97
1401;BME280;46518;48.842;8.926;2023-04-28T06:27:51;96741.13;;;12.70;91.11
1401;BME280;46518;48.842;8.926;2023-04-28T06:30:21;96731.94;;;12.47;92.93
1401;BME280;46518;48.842;8.926;2023-04-28T06:32:50;96742.75;;;12.71;92.57
1401;BME280;46518;48.842;8.926;2023-04-28T06:35:18;96740.09;;;12.71;93.06
1401;BME280;46518;48.842;8.926;2023-04-28T06:37:47;96738.81;;;12.58;93.34
1401;BME280;46518;48.842;8.926;2023-04-28T06:40:16;96733.25;;;12.55;93.40
1401;BME280;46518;48.842;8.926;2023-04-28T06:42:50;96743.28;;;12.52;94.90
1401;BME280;46518;48.842;8.926;2023-04-28T06:45:23;96738.53;;;12.55;94.96
1401;BME280;46518;48.842;8.926;2023-04-28T06:47:52;96729.56;;;12.40;95.83
1401;BME280;46518;48.842;8.926;2023-04-28T06:50:21;96732.47;;;12.49;97.36
1401;BME280;46518;48.842;8.926;2023-04-28T06:53:15;96733.53;;;12.48;96.33
1401;BME280;46518;48.842;8.926;2023-04-28T06:55:44;96733.28;;;12.44;97.70
1401;BME280;46518;48.842;8.926;2023-04-28T06:58:12;96724.56;;;12.54;98.43
1401;BME280;46518;48.842;8.926;2023-04-28T07:00:41;96719.28;;;12.49;99.36
1401;BME280;46518;48.842;8.926;2023-04-28T07:03:09;96721.91;;;12.49;100.00
1401;BME280;46518;48.842;8.926;2023-04-28T07:05:37;96721.66;;;12.45;100.00
1401;BME280;46518;48.842;8.926;2023-04-28T07:08:06;96712.44;;;12.38;100.00
1401;BME280;46518;48.842;8.926;2023-04-28T07:10:34;96708.13;;;12.72;100.00
1401;BME280;46518;48.842;8.926;2023-04-28T07:13:03;96712.63;;;12.72;100.00
1401;BME280;46518;48.842;8.926;2023-04-28T07:15:32;96713.72;;;12.66;100.00
1401;BME280;46518;48.842;8.926;2023-04-28T07:18:00;96721.63;;;12.71;100.00
1401;BME280;46518;48.842;8.926;2023-04-28T07:20:28;96716.53;;;12.90;100.00
1401;BME280;46518;48.842;8.926;2023-04-28T07:22:56;96710.03;;;12.57;100.00
1401;BME280;46518;48.842;8.926;2023-04-28T07:25:25;96716.56;;;12.80;100.00
1401;BME280;46518;48.842;8.926;2023-04-28T07:27:53;96720.31;;;12.63;100.00
1401;BME280;46518;48.842;8.926;2023-04-28T07:30:23;96721.13;;;12.48;100.00
1401;BME280;46518;48.842;8.926;2023-04-28T07:32:54;96711.38;;;12.44;100.00
1401;BME280;46518;48.842;8.926;2023-04-28T07:35:22;96724.31;;;12.50;100.00
1401;BME280;46518;48.842;8.926;2023-04-28T07:37:51;96722.13;;;12.78;100.00
1401;BME280;46518;48.842;8.926;2023-04-28T07:40:21;96715.59;;;12.45;100.00
1401;BME280;46518;48.842;8.926;2023-04-28T07:42:49;96718.78;;;12.32;100.00
1401;BME280;46518;48.842;8.926;2023-04-28T07:45:18;96727.47;;;12.42;100.00
1401;BME280;46518;48.842;8.926;2023-04-28T07:47:48;96725.91;;;12.26;100.00
1401;BME280;46518;48.842;8.926;2023-04-28T07:50:16;96724.31;;;12.09;100.00
1401;BME280;46518;48.842;8.926;2023-04-28T07:52:44;96724.06;;;12.37;100.00
1401;BME280;46518;48.842;8.926;2023-04-28T07:55:12;96732.75;;;12.27;100.00
1401;BME280;46518;48.842;8.926;2023-04-28T07:57:41;96733.03;;;12.20;100.00
1401;BME280;46518;48.842;8.926;2023-04-28T08:00:09;96736.72;;;12.29;100.00
1401;BME280;46518;48.842;8.926;2023-04-28T08:02:38;96735.91;;;12.39;100.00
1401;BME280;46518;48.842;8.926;2023-04-28T08:05:08;96750.19;;;12.43;100.00
1401;BME280;46518;48.842;8.926;2023-04-28T08:07:37;96757.03;;;12.39;100.00
1401;BME280;46518;48.842;8.926;2023-04-28T08:10:07;96757.78;;;12.60;100.00
1401;BME280;46518;48.842;8.926;2023-04-28T08:12:36;96760.66;;;12.79;100.00
1401;BME280;46518;48.842;8.926;2023-04-28T08:15:05;96769.63;;;12.88;100.00
1401;BME280;46518;48.842;8.926;2023-04-28T08:17:33;96777.72;;;13.17;100.00
1401;BME280;46518;48.842;8.926;2023-04-28T08:20:02;96785.09;;;13.36;100.00
1401;BME280;46518;48.842;8.926;2023-04-28T08:22:33;96785.84;;;13.42;100.00
1401;BME280;46518;48.842;8.926;2023-04-28T08:25:01;96786.34;;;13.54;100.00
1401;BME280;46518;48.842;8.926;2023-04-28T08:27:29;96786.28;;;13.64;100.00
1401;BME280;46518;48.842;8.926;2023-04-28T08:29:57;96769.38;;;13.60;100.00
1401;BME280;46518;48.842;8.926;2023-04-28T08:32:26;96783.41;;;13.61;100.00
1401;BME280;46518;48.842;8.926;2023-04-28T08:34:54;96788.94;;;13.59;100.00
1401;BME280;46518;48.842;8.926;2023-04-28T08:37:22;96785.53;;;13.53;100.00
1401;BME280;46518;48.842;8.926;2023-04-28T08:39:52;96784.75;;;13.53;100.00
1401;BME280;46518;48.842;8.926;2023-04-28T08:42:28;96792.16;;;13.56;100.00
1401;BME280;46518;48.842;8.926;2023-04-28T08:44:58;96791.06;;;13.57;100.00
1401;BME280;46518;48.842;8.926;2023-04-28T08:47:32;96790.34;;;13.46;100.00
1401;BME280;46518;48.842;8.926;2023-04-28T08:50:02;96805.09;;;13.52;100.00
1401;BME280;46518;48.842;8.926;2023-04-28T08:52:31;96798.72;;;13.64;100.00
1401;BME280;46518;48.842;8.926;2023-04-28T08:55:07;96798.44;;;13.65;100.00
1401;BME280;46518;48.842;8.926;2023-04-28T08:57:38;96800.63;;;13.53;100.00
1401;BME280;46518;48.842;8.926;2023-04-28T09:00:08;96801.28;;;13.04;100.00
1401;BME280;46518;48.842;8.926;2023-04-28T09:02:36;96797.63;;;12.79;100.00
1401;BME280;46518;48.842;8.926;2023-04-28T09:05:09;96801.34;;;12.78;100.00
1401;BME280;46518;48.842;8.926;2023-04-28T09:07:37;96812.41;;;13.01;100.00
1401;BME280;46518;48.842;8.926;2023-04-28T09:10:16;96810.25;;;13.03;100.00
1401;BME280;46518;48.842;8.926;2023-04-28T09:12:45;96802.09;;;12.99;100.00
1401;BME280;46518;48.842;8.926;2023-04-28T09:15:25;96796.19;;;13.23;100.00
1401;BME280;46518;48.842;8.926;2023-04-28T09:17:53;96804.97;;;13.18;100.00
1401;BME280;46518;48.842;8.926;2023-04-28T09:20:23;96806.25;;;13.26;100.00
1401;BME280;46518;48.842;8.926;2023-04-28T09:22:53;96805.47;;;13.15;100.00
1401;BME280;46518;48.842;8.926;2023-04-28T09:25:23;96805.97;;;13.22;100.00
1401;BME280;46518;48.842;8.926;2023-04-28T09:27:52;96804.13;;;13.23;100.00
1401;BME280;46518;48.842;8.926;2023-04-28T09:30:37;96811.53;;;13.36;100.00
1401;BME280;46518;48.842;8.926;2023-04-28T09:33:06;96805.41;;;13.46;100.00
1401;BME280;46518;48.842;8.926;2023-04-28T09:35:40;96805.66;;;13.49;100.00
1401;BME280;46518;48.842;8.926;2023-04-28T09:38:09;96806.44;;;13.50;100.00
1401;BME280;46518;48.842;8.926;2023-04-28T09:40:51;96807.66;;;13.73;100.00
1401;BME280;46518;48.842;8.926;2023-04-28T09:43:23;96801.84;;;13.71;100.00
1401;BME280;46518;48.842;8.926;2023-04-28T09:45:52;96806.53;;;13.84;100.00
1401;BME280;46518;48.842;8.926;2023-04-28T09:48:29;96804.72;;;13.79;100.00
1401;BME280;46518;48.842;8.926;2023-04-28T09:50:59;96807.81;;;13.92;100.00
1401;BME280;46518;48.842;8.926;2023-04-28T09:53:28;96797.91;;;14.13;100.00
1401;BME280;46518;48.842;8.926;2023-04-28T09:55:59;96799.69;;;14.17;100.00
1401;BME280;46518;48.842;8.926;2023-04-28T09:58:28;96804.91;;;14.28;100.00
1401;BME280;46518;48.842;8.926;2023-04-28T10:00:59;96805.59;;;14.43;100.00
1401;BME280;46518;48.842;8.926;2023-04-28T10:03:29;96799.47;;;14.48;100.00
1401;BME280;46518;48.842;8.926;2023-04-28T10:05:58;96801.78;;;14.60;100.00
1401;BME280;46518;48.842;8.926;2023-04-28T10:08:26;96802.59;;;14.60;100.00
1401;BME280;46518;48.842;8.926;2023-04-28T10:10:56;96801.28;;;14.58;100.00
1401;BME280;46518;48.842;8.926;2023-04-28T10:13:26;96798.28;;;14.64;100.00
1401;BME280;46518;48.842;8.926;2023-04-28T10:15:54;96795.50;;;14.80;100.00
1401;BME280;46518;48.842;8.926;2023-04-28T10:18:24;96804.47;;;14.55;100.00
1401;BME280;46518;48.842;8.926;2023-04-28T10:20:57;96788.28;;;14.61;100.00
1401;BME280;46518;48.842;8.926;2023-04-28T10:27:04;96805.47;;;14.64;100.00
1401;BME280;46518;48.842;8.926;2023-04-28T10:29:35;96801.47;;;14.66;100.00
1401;BME280;46518;48.842;8.926;2023-04-28T10:32:21;96785.88;;;14.89;100.00
1401;BME280;46518;48.842;8.926;2023-04-28T10:34:52;96786.06;;;14.98;100.00
1401;BME280;46518;48.842;8.926;2023-04-28T10:40:30;96785.72;;;15.28;100.00
1401;BME280;46518;48.842;8.926;2023-04-28T10:42:59;96796.22;;;15.15;100.00
1401;BME280;46518;48.842;8.926;2023-04-28T10:46:03;96802.25;;;15.20;100.00
1401;BME280;46518;48.842;8.926;2023-04-28T10:48:55;96801.38;;;15.25;100.00
1401;BME280;46518;48.842;8.926;2023-04-28T10:51:28;96798.69;;;15.30;100.00
1401;BME280;46518;48.842;8.926;2023-04-28T10:54:16;96797.06;;;15.34;100.00
1401;BME280;46518;48.842;8.926;2023-04-28T10:57:19;96800.34;;;15.26;100.00
1401;BME280;46518;48.842;8.926;2023-04-28T10:59:49;96797.03;;;15.10;100.00
1401;BME280;46518;48.842;8.926;2023-04-28T11:02:48;96801.34;;;15.30;100.00
1401;BME280;46518;48.842;8.926;2023-04-28T11:05:18;96803.97;;;15.30;100.00
1401;BME280;46518;48.842;8.926;2023-04-28T11:11:10;96808.16;;;15.60;100.00
1401;BME280;46518;48.842;8.926;2023-04-28T11:13:39;96796.25;;;15.58;100.00
1401;BME280;46518;48.842;8.926;2023-04-28T11:16:08;96795.59;;;15.66;100.00
1401;BME280;46518;48.842;8.926;2023-04-28T11:18:48;96795.94;;;15.59;100.00
1401;BME280;46518;48.842;8.926;2023-04-28T11:21:21;96796.13;;;15.68;100.00
1401;BME280;46518;48.842;8.926;2023-04-28T11:23:50;96800.47;;;15.59;100.00
1401;BME280;46518;48.842;8.926;2023-04-28T11:26:19;96811.09;;;15.59;100.00
1401;BME280;46518;48.842;8.926;2023-04-28T11:28:51;96794.47;;;15.72;100.00
1401;BME280;46518;48.842;8.926;2023-04-28T11:31:22;96791.22;;;15.80;100.00
1401;BME280;46518;48.842;8.926;2023-04-28T11:34:03;96794.78;;;15.89;100.00
1401;BME280;46518;48.842;8.926;2023-04-28T11:36:33;96802.03;;;15.84;100.00
1401;BME280;46518;48.842;8.926;2023-04-28T11:39:03;96799.28;;;15.70;100.00
1401;BME280;46518;48.842;8.926;2023-04-28T11:41:34;96798.16;;;15.95;100.00
1401;BME280;46518;48.842;8.926;2023-04-28T11:44:12;96803.47;;;15.95;100.00
1401;BME280;46518;48.842;8.926;2023-04-28T11:46:45;96800.59;;;15.91;100.00
1401;BME280;46518;48.842;8.926;2023-04-28T11:49:19;96791.06;;;15.90;100.00
1401;BME280;46518;48.842;8.926;2023-04-28T11:51:47;96787.97;;;15.83;100.00
1401;BME280;46518;48.842;8.926;2023-04-28T11:54:20;96794.91;;;15.79;100.00
1401;BME280;46518;48.842;8.926;2023-04-28T11:56:50;96785.41;;;15.78;100.00
1401;BME280;46518;48.842;8.926;2023-04-28T11:59:22;96794.72;;;15.76;100.00
1401;BME280;46518;48.842;8.926;2023-04-28T12:01:53;96786.63;;;15.86;100.00
1401;BME280;46518;48.842;8.926;2023-04-28T12:04:28;96781.75;;;15.93;100.00
1401;BME280;46518;48.842;8.926;2023-04-28T12:07:03;96786.22;;;15.92;100.00
1401;BME280;46518;48.842;8.926;2023-04-28T12:09:32;96787.19;;;15.83;100.00
1401;BME280;46518;48.842;8.926;2023-04-28T12:12:01;96783.88;;;15.91;100.00
1401;BME280;46518;48.842;8.926;2023-04-28T12:14:31;96780.31;;;16.01;100.00
1401;BME280;46518;48.842;8.926;2023-04-28T12:17:01;96779.13;;;16.07;100.00
1401;BME280;46518;48.842;8.926;2023-04-28T12:19:42;96787.88;;;16.07;99.48
1401;BME280;46518;48.842;8.926;2023-04-28T12:22:10;96788.09;;;16.11;99.25
1401;BME280;46518;48.842;8.926;2023-04-28T12:24:39;96792.97;;;16.23;100.00
1401;BME280;46518;48.842;8.926;2023-04-28T12:27:17;96792.25;;;16.36;100.00
1401;BME280;46518;48.842;8.926;2023-04-28T12:29:47;96794.28;;;16.25;97.08
1401;BME280;46518;48.842;8.926;2023-04-28T12:32:17;96795.91;;;16.21;97.21
1401;BME280;46518;48.842;8.926;2023-04-28T12:34:47;96791.38;;;16.22;99.53
1401;BME280;46518;48.842;8.926;2023-04-28T12:37:16;96788.38;;;16.28;98.52
1401;BME280;46518;48.842;8.926;2023-04-28T12:39:45;96791.38;;;16.22;92.86
1401;BME280;46518;48.842;8.926;2023-04-28T12:42:13;96777.25;;;16.26;93.25
1401;BME280;46518;48.842;8.926;2023-04-28T12:44:41;96795.59;;;16.42;97.38
1401;BME280;46518;48.842;8.926;2023-04-28T12:47:10;96781.06;;;16.53;96.76
1401;BME280;46518;48.842;8.926;2023-04-28T12:49:38;96778.94;;;16.69;97.97
1401;BME280;46518;48.842;8.926;2023-04-28T12:52:09;96773.34;;;16.70;100.00
1401;BME280;46518;48.842;8.926;2023-04-28T12:54:37;96771.56;;;16.66;100.00
1401;BME280;46518;48.842;8.926;2023-04-28T12:57:09;96759.75;;;16.58;100.00
1401;BME280;46518;48.842;8.926;2023-04-28T12:59:39;96738.00;;;16.70;100.00
1401;BME280;46518;48.842;8.926;2023-04-28T13:02:08;96745.28;;;16.64;100.00
1401;BME280;46518;48.842;8.926;2023-04-28T13:04:36;96746.31;;;16.96;100.00
1401;BME280;46518;48.842;8.926;2023-04-28T13:07:04;96752.03;;;17.03;99.97
1401;BME280;46518;48.842;8.926;2023-04-28T13:09:34;96758.34;;;17.21;97.28
1401;BME280;46518;48.842;8.926;2023-04-28T13:12:04;96762.56;;;17.22;95.73
1401;BME280;46518;48.842;8.926;2023-04-28T13:14:33;96768.56;;;17.28;92.17
1401;BME280;46518;48.842;8.926;2023-04-28T13:17:01;96774.88;;;17.32;97.19
1401;BME280;46518;48.842;8.926;2023-04-28T13:19:30;96773.31;;;17.31;92.50
1401;BME280;46518;48.842;8.926;2023-04-28T13:22:00;96772.13;;;17.23;91.36
1401;BME280;46518;48.842;8.926;2023-04-28T13:24:31;96771.50;;;17.12;93.42
1401;BME280;46518;48.842;8.926;2023-04-28T13:27:01;96768.09;;;16.98;89.79
1401;BME280;46518;48.842;8.926;2023-04-28T13:29:30;96763.75;;;17.02;94.00
1401;BME280;46518;48.842;8.926;2023-04-28T13:31:58;96765.44;;;16.98;92.57
1401;BME280;46518;48.842;8.926;2023-04-28T13:34:26;96765.00;;;17.04;92.85
1401;BME280;46518;48.842;8.926;2023-04-28T13:36:55;96768.00;;;17.03;89.44